createdAt,value
2022-08-10T00:04:49.578Z,3.40
2022-08-10T00:09:51.505Z,3.67
2022-08-10T00:14:53.225Z,3.20
2022-08-10T00:20:03.180Z,3.70
2022-08-10T00:25:10.610Z,2.97
2022-08-10T00:30:12.832Z,3.10
2022-08-10T00:35:14.490Z,3.63
2022-08-10T00:40:16.169Z,3.85
2022-08-10T00:45:17.826Z,3.78
2022-08-10T00:50:19.641Z,3.45
2022-08-10T00:55:21.631Z,4.13
2022-08-10T01:00:24.542Z,3.47
2022-08-10T01:05:26.813Z,3.72
2022-08-10T01:10:39.790Z,3.10
2022-08-10T01:16:18.338Z,3.67
2022-08-10T01:22:04.513Z,3.70
2022-08-10T01:27:47.407Z,3.63
2022-08-10T01:33:11.996Z,3.03
2022-08-10T01:38:23.721Z,3.65
2022-08-10T01:43:28.033Z,3.92
2022-08-10T01:48:36.636Z,3.17
2022-08-10T01:54:01.461Z,3.40
2022-08-10T01:59:09.306Z,3.67
2022-08-10T02:04:14.207Z,3.40
2022-08-10T02:09:21.197Z,3.97
2022-08-10T02:14:33.314Z,3.80
2022-08-10T02:19:39.509Z,3.88
2022-08-10T02:24:43.028Z,4.50
2022-08-10T02:29:49.039Z,4.50
2022-08-10T02:34:52.530Z,3.58
2022-08-10T02:39:54.684Z,4.50
2022-08-10T02:45:29.699Z,4.53
2022-08-10T02:50:38.685Z,3.80
2022-08-10T02:55:49.861Z,4.00
2022-08-10T03:00:56.773Z,4.70
2022-08-10T03:06:07.363Z,4.28
2022-08-10T03:12:37.211Z,4.70
2022-08-10T03:16:45.764Z,4.70
2022-08-10T03:21:50.143Z,4.53
2022-08-10T03:26:53.878Z,4.40
2022-08-10T03:31:56.525Z,4.53
2022-08-10T03:36:58.358Z,4.80
2022-08-10T03:42:03.688Z,3.88
2022-08-10T03:47:15.951Z,4.13
2022-08-10T03:52:19.242Z,4.43
2022-08-10T03:57:22.063Z,4.57
2022-08-10T04:02:42.133Z,4.38
2022-08-10T04:07:46.310Z,4.40
2022-08-10T04:12:47.957Z,4.03
2022-08-10T04:17:57.213Z,4.40
2022-08-10T04:23:20.005Z,4.40
2022-08-10T04:28:22.320Z,4.72
2022-08-10T04:33:26.254Z,4.47
2022-08-10T04:38:31.321Z,5.55
2022-08-10T04:43:33.341Z,4.13
2022-08-10T04:48:40.748Z,4.82
2022-08-10T04:54:03.992Z,3.92
2022-08-10T04:59:10.118Z,3.78
2022-08-10T05:04:37.516Z,3.38
2022-08-10T05:09:33.413Z,3.72
2022-08-10T05:14:55.167Z,4.13
2022-08-10T05:20:05.073Z,3.85
2022-08-10T05:25:10.249Z,4.07
2022-08-10T05:30:15.739Z,3.78
2022-08-10T05:35:17.486Z,3.53
2022-08-10T05:40:19.565Z,3.13
2022-08-10T05:45:24.873Z,3.47
2022-08-10T05:50:31.058Z,3.72
2022-08-10T05:55:33.125Z,3.03
2022-08-10T06:00:40.765Z,3.83
2022-08-10T06:05:47.773Z,3.22
2022-08-10T06:12:26.979Z,3.65
2022-08-10T06:16:15.986Z,4.18
2022-08-10T06:21:19.377Z,3.47
2022-08-10T06:26:21.841Z,3.20
2022-08-10T06:31:26.203Z,3.40
2022-08-10T06:36:30.199Z,2.88
2022-08-10T06:41:57.851Z,3.35
2022-08-10T06:47:04.985Z,2.95
2022-08-10T06:52:18.096Z,3.05
2022-08-10T06:57:24.829Z,3.15
2022-08-10T07:02:33.763Z,3.50
2022-08-10T07:07:38.892Z,2.80
2022-08-10T07:12:41.180Z,4.03
2022-08-10T07:17:45.038Z,5.00
2022-08-10T07:23:01.677Z,3.95
2022-08-10T07:28:15.602Z,3.25
2022-08-10T07:33:19.377Z,3.15
2022-08-10T07:38:27.077Z,3.60
2022-08-10T07:43:35.577Z,4.57
2022-08-10T07:48:42.488Z,4.00
2022-08-10T07:53:50.389Z,4.40
2022-08-10T07:58:59.678Z,3.92
2022-08-10T08:04:05.286Z,3.95
2022-08-10T08:09:12.825Z,3.30
2022-08-10T08:14:15.753Z,3.33
2022-08-10T08:19:38.033Z,3.25
2022-08-10T08:24:42.342Z,3.47
2022-08-10T08:29:48.193Z,3.47
2022-08-10T08:34:54.623Z,3.13
2022-08-10T08:39:56.905Z,3.30
2022-08-10T08:45:36.015Z,2.80
2022-08-10T08:50:57.774Z,2.75
2022-08-10T08:56:22.086Z,3.58
2022-08-10T09:01:37.953Z,2.83
2022-08-10T09:07:39.503Z,2.40
2022-08-10T09:12:48.049Z,2.60
2022-08-10T09:18:16.361Z,3.67
2022-08-10T09:24:01.933Z,1.83
2022-08-10T09:29:12.342Z,1.88
2022-08-10T09:36:24.978Z,2.55
2022-08-10T09:40:57.095Z,2.42
2022-08-10T09:45:43.656Z,2.20
2022-08-10T09:51:43.580Z,2.20
2022-08-10T09:57:12.017Z,2.38
2022-08-10T10:02:55.027Z,2.38
2022-08-10T10:08:22.614Z,2.53
2022-08-10T10:13:50.007Z,2.78
2022-08-10T10:19:15.446Z,2.50
2022-08-10T10:24:25.074Z,2.72
2022-08-10T10:29:57.008Z,2.53
2022-08-10T10:35:16.606Z,3.08
2022-08-10T10:40:21.279Z,3.10
2022-08-10T10:45:36.860Z,3.08
2022-08-10T10:50:59.286Z,2.70
2022-08-10T10:56:14.841Z,2.88
2022-08-10T11:01:44.674Z,3.17
2022-08-10T11:07:05.378Z,3.35
2022-08-10T11:12:19.908Z,2.78
2022-08-10T11:17:38.930Z,2.50
2022-08-10T11:22:59.526Z,2.83
2022-08-10T11:28:04.253Z,2.63
2022-08-10T11:33:30.729Z,3.45
2022-08-10T11:39:13.576Z,2.55
2022-08-10T11:44:33.597Z,2.92
2022-08-10T11:49:55.636Z,2.20
2022-08-10T11:55:03.077Z,2.50
2022-08-10T12:00:07.666Z,2.90
2022-08-10T12:05:11.621Z,2.58
2022-08-10T12:10:14.660Z,2.40
2022-08-10T12:15:24.529Z,2.35
2022-08-10T12:20:37.575Z,2.28
2022-08-10T12:26:07.546Z,2.50
2022-08-10T12:31:12.293Z,2.20
2022-08-10T12:36:22.770Z,3.20
2022-08-10T12:41:44.408Z,2.92
2022-08-10T12:47:00.276Z,2.33
2022-08-10T12:52:23.734Z,2.35
2022-08-10T12:57:26.483Z,2.78
2022-08-10T13:02:31.465Z,2.58
2022-08-10T13:08:24.783Z,3.00
2022-08-10T13:13:02.586Z,2.67
2022-08-10T13:18:19.031Z,3.30
2022-08-10T13:23:25.097Z,2.85
2022-08-10T13:28:49.745Z,2.40
2022-08-10T13:34:38.978Z,2.83
2022-08-10T13:39:25.460Z,2.50
2022-08-10T13:44:46.879Z,2.78
2022-08-10T13:49:54.418Z,2.85
2022-08-10T13:54:59.141Z,2.63
2022-08-10T14:00:35.505Z,2.83
2022-08-10T14:05:31.090Z,2.40
2022-08-10T14:11:09.253Z,2.50
2022-08-10T14:16:07.892Z,3.03
2022-08-10T14:21:09.913Z,2.53
2022-08-10T14:26:16.078Z,2.63
2022-08-10T14:31:22.322Z,2.67
2022-08-10T14:36:39.901Z,2.20
2022-08-10T14:42:02.974Z,2.83
2022-08-10T14:47:54.194Z,2.45
2022-08-10T14:52:27.838Z,3.00
2022-08-10T14:58:19.000Z,2.83
2022-08-10T15:02:58.035Z,3.20
2022-08-10T15:08:00.397Z,2.58
2022-08-10T15:13:07.126Z,2.35
2022-08-10T15:18:30.069Z,2.95
2022-08-10T15:24:04.616Z,2.35
2022-08-10T15:29:22.145Z,3.03
2022-08-10T15:34:44.656Z,2.90
2022-08-10T15:40:25.174Z,2.53
2022-08-10T15:45:18.083Z,2.50
2022-08-10T15:50:21.957Z,2.42
2022-08-10T15:55:42.995Z,2.25
2022-08-10T16:00:59.501Z,2.95
2022-08-10T16:06:03.501Z,2.80
2022-08-10T16:11:11.706Z,2.85
2022-08-10T16:16:15.763Z,2.72
2022-08-10T16:21:21.164Z,2.28
2022-08-10T16:26:28.606Z,2.28
2022-08-10T16:31:35.655Z,2.58
2022-08-10T16:36:49.767Z,2.60
2022-08-10T16:42:03.017Z,2.72
2022-08-10T16:47:09.912Z,2.20
2022-08-10T16:52:14.462Z,2.50
2022-08-10T16:57:16.602Z,2.45
2022-08-10T17:02:20.416Z,2.58
2022-08-10T17:07:30.695Z,2.50
2022-08-10T17:12:34.619Z,3.03
2022-08-10T17:17:44.341Z,2.70
2022-08-10T17:22:50.476Z,2.40
2022-08-10T17:28:13.731Z,2.40
2022-08-10T17:33:21.597Z,2.65
2022-08-10T17:38:25.966Z,2.20
2022-08-10T17:43:58.597Z,2.85
2022-08-10T17:48:53.395Z,2.33
2022-08-10T17:54:00.563Z,2.75
2022-08-10T17:59:11.948Z,2.63
2022-08-10T18:04:21.054Z,2.60
2022-08-10T18:09:39.210Z,2.60
2022-08-10T18:14:44.741Z,2.90
2022-08-10T18:19:50.967Z,2.33
2022-08-10T18:24:56.055Z,3.10
2022-08-10T18:30:03.291Z,3.10
2022-08-10T18:35:08.306Z,2.65
2022-08-10T18:40:11.270Z,2.47
2022-08-10T18:45:21.221Z,2.38
2022-08-10T18:50:28.700Z,3.30
2022-08-10T18:55:35.482Z,2.78
2022-08-10T19:01:27.220Z,2.75
2022-08-10T19:06:49.366Z,2.72
2022-08-10T19:12:29.834Z,2.65
2022-08-10T19:18:01.248Z,2.75
2022-08-10T19:23:33.207Z,3.05
2022-08-10T19:28:59.403Z,2.47
2022-08-10T19:34:22.361Z,2.85
2022-08-10T19:39:41.976Z,3.20
2022-08-10T19:45:06.381Z,3.47
2022-08-10T19:50:13.844Z,3.15
2022-08-10T19:55:39.696Z,2.83
2022-08-10T20:00:55.817Z,3.08
2022-08-10T20:06:19.594Z,2.85
2022-08-10T20:11:56.845Z,3.17
2022-08-10T20:17:23.173Z,3.13
2022-08-10T20:22:45.233Z,2.58
2022-08-10T20:28:22.188Z,3.28
2022-08-10T20:33:38.191Z,2.95
2022-08-10T20:39:09.790Z,3.40
2022-08-10T20:44:39.358Z,2.97
2022-08-10T20:49:55.721Z,3.08
2022-08-10T20:55:08.507Z,3.45
2022-08-10T21:00:18.514Z,3.60
2022-08-10T21:05:43.507Z,3.28
2022-08-10T21:11:11.558Z,3.38
2022-08-10T21:16:47.257Z,3.78
2022-08-10T21:22:03.529Z,4.45
2022-08-10T21:27:39.888Z,3.35
2022-08-10T21:32:56.638Z,3.63
2022-08-10T21:38:07.970Z,3.20
2022-08-10T21:49:51.505Z,3.35
2022-08-10T21:55:19.316Z,3.55
2022-08-10T22:00:39.688Z,3.60
2022-08-10T22:06:07.111Z,3.88
2022-08-10T22:11:37.529Z,4.05
2022-08-10T22:17:04.352Z,3.35
2022-08-10T22:22:28.650Z,3.80
2022-08-10T22:27:54.563Z,3.60
2022-08-10T22:31:25.187Z,3.63
2022-08-10T22:33:39.462Z,3.63
2022-08-10T22:39:16.720Z,3.90
2022-08-10T22:45:01.454Z,3.95
2022-08-10T22:50:08.080Z,3.50
2022-08-10T22:55:40.074Z,3.92
2022-08-10T23:00:42.203Z,3.85
2022-08-10T23:06:08.641Z,3.78
2022-08-10T23:11:24.949Z,3.60
2022-08-10T23:16:47.756Z,3.08
2022-08-10T23:22:07.376Z,3.60
2022-08-10T23:27:39.041Z,3.38
2022-08-10T23:32:38.950Z,3.55
2022-08-10T23:37:42.248Z,3.50
2022-08-10T23:42:50.240Z,3.80
2022-08-10T23:47:56.262Z,3.53
2022-08-10T23:53:01.638Z,3.42
2022-08-10T23:58:09.501Z,3.75
